sensor_id;sensor_type;location;lat;lon;timestamp;temperature;humidity
14283;DHT22;7225;59.282;18.344;2022-12-07T00:01:44;-0.60;99.90
14283;DHT22;7225;59.282;18.344;2022-12-07T00:04:13;-0.60;99.90
14283;DHT22;7225;59.282;18.344;2022-12-07T00:06:44;-0.60;99.90
14283;DHT22;7225;59.282;18.344;2022-12-07T00:09:16;-0.60;99.90
14283;DHT22;7225;59.282;18.344;2022-12-07T00:11:49;-0.60;99.90
14283;DHT22;7225;59.282;18.344;2022-12-07T00:14:19;-0.70;99.90
14283;DHT22;7225;59.282;18.344;2022-12-07T00:16:52;-0.70;99.90
14283;DHT22;7225;59.282;18.344;2022-12-07T00:19:20;-0.70;99.90
14283;DHT22;7225;59.282;18.344;2022-12-07T00:21:47;-0.70;99.90
14283;DHT22;7225;59.282;18.344;2022-12-07T00:24:16;-0.80;99.90
14283;DHT22;7225;59.282;18.344;2022-12-07T00:26:44;-0.80;99.90
14283;DHT22;7225;59.282;18.344;2022-12-07T00:29:16;-0.80;99.90
14283;DHT22;7225;59.282;18.344;2022-12-07T00:31:45;-0.80;99.90
14283;DHT22;7225;59.282;18.344;2022-12-07T00:34:17;-0.80;99.90
14283;DHT22;7225;59.282;18.344;2022-12-07T00:36:46;-0.80;99.90
14283;DHT22;7225;59.282;18.344;2022-12-07T00:39:14;-0.70;99.90
14283;DHT22;7225;59.282;18.344;2022-12-07T00:41:42;-0.70;99.90
14283;DHT22;7225;59.282;18.344;2022-12-07T00:44:11;-0.70;99.90
14283;DHT22;7225;59.282;18.344;2022-12-07T00:46:38;-0.70;99.90
14283;DHT22;7225;59.282;18.344;2022-12-07T00:49:06;-0.70;99.90
14283;DHT22;7225;59.282;18.344;2022-12-07T00:51:34;-0.80;99.90
14283;DHT22;7225;59.282;18.344;2022-12-07T00:54:03;-0.80;99.90
14283;DHT22;7225;59.282;18.344;2022-12-07T00:56:31;-0.80;99.90
14283;DHT22;7225;59.282;18.344;2022-12-07T00:59:00;-0.90;99.90
14283;DHT22;7225;59.282;18.344;2022-12-07T01:01:35;-0.80;99.90
14283;DHT22;7225;59.282;18.344;2022-12-07T01:04:04;-0.80;99.90
14283;DHT22;7225;59.282;18.344;2022-12-07T01:06:32;-0.90;99.90
14283;DHT22;7225;59.282;18.344;2022-12-07T01:09:00;-0.90;99.90
14283;DHT22;7225;59.282;18.344;2022-12-07T01:11:30;-0.90;99.90
14283;DHT22;7225;59.282;18.344;2022-12-07T01:13:59;-0.90;99.90
14283;DHT22;7225;59.282;18.344;2022-12-07T01:16:29;-0.80;99.90
14283;DHT22;7225;59.282;18.344;2022-12-07T01:19:00;-0.90;99.90
14283;DHT22;7225;59.282;18.344;2022-12-07T01:21:30;-0.90;99.90
14283;DHT22;7225;59.282;18.344;2022-12-07T01:24:02;-0.90;99.90
14283;DHT22;7225;59.282;18.344;2022-12-07T01:26:30;-0.90;99.90
14283;DHT22;7225;59.282;18.344;2022-12-07T01:28:57;-0.90;99.90
14283;DHT22;7225;59.282;18.344;2022-12-07T01:31:27;-0.90;99.90
14283;DHT22;7225;59.282;18.344;2022-12-07T01:33:57;-1.00;99.90
14283;DHT22;7225;59.282;18.344;2022-12-07T01:36:32;-0.90;99.90
14283;DHT22;7225;59.282;18.344;2022-12-07T01:39:04;-1.00;99.90
14283;DHT22;7225;59.282;18.344;2022-12-07T01:41:36;-1.00;99.90
14283;DHT22;7225;59.282;18.344;2022-12-07T01:46:34;-1.10;99.90
14283;DHT22;7225;59.282;18.344;2022-12-07T01:49:08;-1.10;99.90
14283;DHT22;7225;59.282;18.344;2022-12-07T01:51:39;-1.10;99.90
14283;DHT22;7225;59.282;18.344;2022-12-07T01:54:10;-1.00;99.90
14283;DHT22;7225;59.282;18.344;2022-12-07T01:56:42;-1.10;99.90
14283;DHT22;7225;59.282;18.344;2022-12-07T01:59:13;-1.10;99.90
14283;DHT22;7225;59.282;18.344;2022-12-07T02:01:42;-1.00;99.90
14283;DHT22;7225;59.282;18.344;2022-12-07T02:04:11;-1.00;99.90
14283;DHT22;7225;59.282;18.344;2022-12-07T02:06:40;-1.10;99.90
14283;DHT22;7225;59.282;18.344;2022-12-07T02:09:12;-1.10;99.90
14283;DHT22;7225;59.282;18.344;2022-12-07T02:11:40;-1.10;99.90
14283;DHT22;7225;59.282;18.344;2022-12-07T02:14:07;-1.10;99.90
14283;DHT22;7225;59.282;18.344;2022-12-07T02:16:46;-1.00;99.90
14283;DHT22;7225;59.282;18.344;2022-12-07T02:19:39;-1.00;99.90
14283;DHT22;7225;59.282;18.344;2022-12-07T02:28:12;-1.10;99.90
14283;DHT22;7225;59.282;18.344;2022-12-07T02:30:46;-1.10;99.90
14283;DHT22;7225;59.282;18.344;2022-12-07T02:33:25;-1.10;99.90
14283;DHT22;7225;59.282;18.344;2022-12-07T02:35:59;-1.10;99.90
14283;DHT22;7225;59.282;18.344;2022-12-07T02:38:47;-1.10;99.90
14283;DHT22;7225;59.282;18.344;2022-12-07T02:41:25;-1.00;99.90
14283;DHT22;7225;59.282;18.344;2022-12-07T02:43:59;-1.00;99.90
14283;DHT22;7225;59.282;18.344;2022-12-07T02:46:33;-1.00;99.90
14283;DHT22;7225;59.282;18.344;2022-12-07T02:49:03;-1.00;99.90
14283;DHT22;7225;59.282;18.344;2022-12-07T02:51:33;-1.00;99.90
14283;DHT22;7225;59.282;18.344;2022-12-07T02:54:01;-1.00;99.90
14283;DHT22;7225;59.282;18.344;2022-12-07T03:12:14;-0.90;99.90
14283;DHT22;7225;59.282;18.344;2022-12-07T03:15:12;-0.90;99.90
14283;DHT22;7225;59.282;18.344;2022-12-07T03:17:44;-0.80;99.90
14283;DHT22;7225;59.282;18.344;2022-12-07T03:20:17;-0.80;99.90
14283;DHT22;7225;59.282;18.344;2022-12-07T03:22:47;-0.80;99.90
14283;DHT22;7225;59.282;18.344;2022-12-07T03:25:16;-0.80;99.90
14283;DHT22;7225;59.282;18.344;2022-12-07T03:27:57;-0.80;99.90
14283;DHT22;7225;59.282;18.344;2022-12-07T03:30:35;-0.70;99.90
14283;DHT22;7225;59.282;18.344;2022-12-07T03:33:21;-0.70;99.90
14283;DHT22;7225;59.282;18.344;2022-12-07T03:36:14;-0.70;99.90
14283;DHT22;7225;59.282;18.344;2022-12-07T03:38:48;-0.70;99.90
14283;DHT22;7225;59.282;18.344;2022-12-07T03:41:27;-0.70;99.90
14283;DHT22;7225;59.282;18.344;2022-12-07T03:43:56;-0.70;99.90
14283;DHT22;7225;59.282;18.344;2022-12-07T03:49:38;-0.70;99.90
14283;DHT22;7225;59.282;18.344;2022-12-07T03:52:24;-0.70;99.90
14283;DHT22;7225;59.282;18.344;2022-12-07T03:55:09;-0.70;99.90
14283;DHT22;7225;59.282;18.344;2022-12-07T03:57:40;-0.70;99.90
14283;DHT22;7225;59.282;18.344;2022-12-07T04:00:10;-0.70;99.90
14283;DHT22;7225;59.282;18.344;2022-12-07T04:02:53;-0.70;99.90
14283;DHT22;7225;59.282;18.344;2022-12-07T04:05:21;-0.70;99.90
14283;DHT22;7225;59.282;18.344;2022-12-07T04:07:49;-0.70;99.90
14283;DHT22;7225;59.282;18.344;2022-12-07T04:10:17;-0.70;99.90
14283;DHT22;7225;59.282;18.344;2022-12-07T04:12:45;-0.70;99.90
14283;DHT22;7225;59.282;18.344;2022-12-07T04:15:14;-0.80;99.90
14283;DHT22;7225;59.282;18.344;2022-12-07T04:17:42;-0.80;99.90
14283;DHT22;7225;59.282;18.344;2022-12-07T04:20:11;-0.80;99.90
14283;DHT22;7225;59.282;18.344;2022-12-07T04:22:39;-0.80;99.90
14283;DHT22;7225;59.282;18.344;2022-12-07T04:25:06;-0.70;99.90
14283;DHT22;7225;59.282;18.344;2022-12-07T04:27:35;-0.80;99.90
14283;DHT22;7225;59.282;18.344;2022-12-07T04:30:04;-0.80;99.90
14283;DHT22;7225;59.282;18.344;2022-12-07T04:32:33;-0.80;99.90
14283;DHT22;7225;59.282;18.344;2022-12-07T04:35:02;-0.80;99.90
14283;DHT22;7225;59.282;18.344;2022-12-07T04:37:29;-0.90;99.90
14283;DHT22;7225;59.282;18.344;2022-12-07T04:39:57;-0.90;99.90
14283;DHT22;7225;59.282;18.344;2022-12-07T04:42:25;-0.90;99.90
14283;DHT22;7225;59.282;18.344;2022-12-07T04:44:53;-0.90;99.90
14283;DHT22;7225;59.282;18.344;2022-12-07T04:47:20;-0.90;99.90
14283;DHT22;7225;59.282;18.344;2022-12-07T04:49:48;-0.90;99.90
14283;DHT22;7225;59.282;18.344;2022-12-07T04:52:15;-0.90;99.90
14283;DHT22;7225;59.282;18.344;2022-12-07T04:54:45;-0.90;99.90
14283;DHT22;7225;59.282;18.344;2022-12-07T04:57:12;-0.90;99.90
14283;DHT22;7225;59.282;18.344;2022-12-07T04:59:40;-0.90;99.90
14283;DHT22;7225;59.282;18.344;2022-12-07T05:02:13;-0.90;99.90
14283;DHT22;7225;59.282;18.344;2022-12-07T05:04:40;-0.90;99.90
14283;DHT22;7225;59.282;18.344;2022-12-07T05:07:08;-0.90;99.90
14283;DHT22;7225;59.282;18.344;2022-12-07T05:09:36;-0.90;99.90
14283;DHT22;7225;59.282;18.344;2022-12-07T05:12:04;-0.90;99.90
14283;DHT22;7225;59.282;18.344;2022-12-07T05:14:32;-0.90;99.90
14283;DHT22;7225;59.282;18.344;2022-12-07T05:16:59;-0.90;99.90
14283;DHT22;7225;59.282;18.344;2022-12-07T05:19:27;-0.90;99.90
14283;DHT22;7225;59.282;18.344;2022-12-07T05:21:54;-0.90;99.90
14283;DHT22;7225;59.282;18.344;2022-12-07T05:24:21;-0.90;99.90
14283;DHT22;7225;59.282;18.344;2022-12-07T05:26:49;-0.90;99.90
14283;DHT22;7225;59.282;18.344;2022-12-07T05:29:18;-0.90;99.90
14283;DHT22;7225;59.282;18.344;2022-12-07T05:31:45;-0.90;99.90
14283;DHT22;7225;59.282;18.344;2022-12-07T05:34:14;-0.90;99.90
14283;DHT22;7225;59.282;18.344;2022-12-07T05:36:42;-0.90;99.90
14283;DHT22;7225;59.282;18.344;2022-12-07T05:39:10;-0.90;99.90
14283;DHT22;7225;59.282;18.344;2022-12-07T05:41:37;-0.90;99.90
14283;DHT22;7225;59.282;18.344;2022-12-07T05:44:25;-0.90;99.90
14283;DHT22;7225;59.282;18.344;2022-12-07T05:46:52;-0.90;99.90
14283;DHT22;7225;59.282;18.344;2022-12-07T05:49:20;-0.90;99.90
14283;DHT22;7225;59.282;18.344;2022-12-07T05:51:48;-0.90;99.90
14283;DHT22;7225;59.282;18.344;2022-12-07T05:54:17;-0.90;99.90
14283;DHT22;7225;59.282;18.344;2022-12-07T05:56:45;-0.90;99.90
14283;DHT22;7225;59.282;18.344;2022-12-07T05:59:12;-0.90;99.90
14283;DHT22;7225;59.282;18.344;2022-12-07T06:01:57;-1.00;99.90
14283;DHT22;7225;59.282;18.344;2022-12-07T06:04:29;-1.00;99.90
14283;DHT22;7225;59.282;18.344;2022-12-07T06:06:58;-1.00;99.90
14283;DHT22;7225;59.282;18.344;2022-12-07T06:09:28;-0.90;99.90
14283;DHT22;7225;59.282;18.344;2022-12-07T06:11:57;-0.90;99.90
14283;DHT22;7225;59.282;18.344;2022-12-07T06:14:44;-0.90;99.90
14283;DHT22;7225;59.282;18.344;2022-12-07T06:17:12;-1.00;99.90
14283;DHT22;7225;59.282;18.344;2022-12-07T06:19:40;-1.00;99.90
14283;DHT22;7225;59.282;18.344;2022-12-07T06:22:08;-1.00;99.90
14283;DHT22;7225;59.282;18.344;2022-12-07T06:24:35;-1.00;99.90
14283;DHT22;7225;59.282;18.344;2022-12-07T06:27:04;-1.00;99.90
14283;DHT22;7225;59.282;18.344;2022-12-07T06:29:31;-1.00;99.90
14283;DHT22;7225;59.282;18.344;2022-12-07T06:31:59;-1.00;99.90
14283;DHT22;7225;59.282;18.344;2022-12-07T06:34:29;-1.10;99.90
14283;DHT22;7225;59.282;18.344;2022-12-07T06:36:57;-1.10;99.90
14283;DHT22;7225;59.282;18.344;2022-12-07T06:39:27;-1.10;99.90
14283;DHT22;7225;59.282;18.344;2022-12-07T06:41:56;-1.10;99.90
14283;DHT22;7225;59.282;18.344;2022-12-07T06:44:23;-1.10;99.90
14283;DHT22;7225;59.282;18.344;2022-12-07T06:46:51;-1.10;99.90
14283;DHT22;7225;59.282;18.344;2022-12-07T06:49:39;-1.10;99.90
14283;DHT22;7225;59.282;18.344;2022-12-07T06:52:07;-1.10;99.90
14283;DHT22;7225;59.282;18.344;2022-12-07T06:54:35;-1.10;99.90
14283;DHT22;7225;59.282;18.344;2022-12-07T06:57:03;-1.10;99.90
14283;DHT22;7225;59.282;18.344;2022-12-07T06:59:31;-1.10;99.90
14283;DHT22;7225;59.282;18.344;2022-12-07T07:02:01;-1.10;99.90
14283;DHT22;7225;59.282;18.344;2022-12-07T07:04:29;-1.20;99.90
14283;DHT22;7225;59.282;18.344;2022-12-07T07:06:57;-1.20;99.90
14283;DHT22;7225;59.282;18.344;2022-12-07T07:09:26;-1.20;99.90
14283;DHT22;7225;59.282;18.344;2022-12-07T07:11:54;-1.20;99.90
14283;DHT22;7225;59.282;18.344;2022-12-07T07:14:21;-1.20;99.90
14283;DHT22;7225;59.282;18.344;2022-12-07T07:16:49;-1.20;99.90
14283;DHT22;7225;59.282;18.344;2022-12-07T07:19:16;-1.30;99.90
14283;DHT22;7225;59.282;18.344;2022-12-07T07:21:44;-1.20;99.90
14283;DHT22;7225;59.282;18.344;2022-12-07T07:24:13;-1.20;99.90
14283;DHT22;7225;59.282;18.344;2022-12-07T07:26:40;-1.20;99.90
14283;DHT22;7225;59.282;18.344;2022-12-07T07:29:08;-1.20;99.90
14283;DHT22;7225;59.282;18.344;2022-12-07T07:31:35;-1.20;99.90
14283;DHT22;7225;59.282;18.344;2022-12-07T07:34:04;-1.30;99.90
14283;DHT22;7225;59.282;18.344;2022-12-07T07:36:34;-1.20;99.90
14283;DHT22;7225;59.282;18.344;2022-12-07T07:39:02;-1.20;99.90
14283;DHT22;7225;59.282;18.344;2022-12-07T07:41:31;-1.30;99.90
14283;DHT22;7225;59.282;18.344;2022-12-07T07:43:58;-1.20;99.90
14283;DHT22;7225;59.282;18.344;2022-12-07T07:46:27;-1.20;99.90
14283;DHT22;7225;59.282;18.344;2022-12-07T07:48:57;-1.20;99.90
14283;DHT22;7225;59.282;18.344;2022-12-07T07:51:26;-1.20;99.90
14283;DHT22;7225;59.282;18.344;2022-12-07T07:53:54;-1.20;99.90
14283;DHT22;7225;59.282;18.344;2022-12-07T07:56:23;-1.20;99.90
14283;DHT22;7225;59.282;18.344;2022-12-07T07:58:54;-1.20;99.90
14283;DHT22;7225;59.282;18.344;2022-12-07T08:01:23;-1.20;99.90
14283;DHT22;7225;59.282;18.344;2022-12-07T08:03:50;-1.20;99.90
14283;DHT22;7225;59.282;18.344;2022-12-07T08:06:17;-1.20;99.90
14283;DHT22;7225;59.282;18.344;2022-12-07T08:08:44;-1.20;99.90
14283;DHT22;7225;59.282;18.344;2022-12-07T08:11:12;-1.10;99.90
14283;DHT22;7225;59.282;18.344;2022-12-07T08:13:46;-1.10;99.90
14283;DHT22;7225;59.282;18.344;2022-12-07T08:16:17;-1.10;99.90
14283;DHT22;7225;59.282;18.344;2022-12-07T08:18:45;-1.10;99.90
14283;DHT22;7225;59.282;18.344;2022-12-07T08:21:14;-1.00;99.90
14283;DHT22;7225;59.282;18.344;2022-12-07T08:23:45;-1.00;99.90
14283;DHT22;7225;59.282;18.344;2022-12-07T08:26:15;-1.00;99.90
14283;DHT22;7225;59.282;18.344;2022-12-07T08:28:43;-1.00;99.90
14283;DHT22;7225;59.282;18.344;2022-12-07T08:31:16;-1.00;99.90
14283;DHT22;7225;59.282;18.344;2022-12-07T08:33:48;-1.00;99.90
14283;DHT22;7225;59.282;18.344;2022-12-07T08:36:17;-0.90;99.90
14283;DHT22;7225;59.282;18.344;2022-12-07T08:38:46;-0.90;99.90
14283;DHT22;7225;59.282;18.344;2022-12-07T08:41:33;-0.90;99.90
14283;DHT22;7225;59.282;18.344;2022-12-07T08:44:00;-0.90;99.90
14283;DHT22;7225;59.282;18.344;2022-12-07T08:49:11;-0.80;99.90
14283;DHT22;7225;59.282;18.344;2022-12-07T08:51:41;-0.80;99.90
14283;DHT22;7225;59.282;18.344;2022-12-07T08:54:12;-0.80;99.90
14283;DHT22;7225;59.282;18.344;2022-12-07T08:56:42;-0.80;99.90
14283;DHT22;7225;59.282;18.344;2022-12-07T08:59:14;-0.70;99.90
14283;DHT22;7225;59.282;18.344;2022-12-07T09:01:45;-0.70;99.90
14283;DHT22;7225;59.282;18.344;2022-12-07T09:04:13;-0.70;99.90
14283;DHT22;7225;59.282;18.344;2022-12-07T09:06:43;-0.70;99.90
14283;DHT22;7225;59.282;18.344;2022-12-07T09:09:11;-0.70;99.90
14283;DHT22;7225;59.282;18.344;2022-12-07T09:11:40;-0.60;99.90
14283;DHT22;7225;59.282;18.344;2022-12-07T09:14:11;-0.60;99.90
14283;DHT22;7225;59.282;18.344;2022-12-07T09:16:40;-0.60;99.90
14283;DHT22;7225;59.282;18.344;2022-12-07T09:19:08;-0.50;99.90
14283;DHT22;7225;59.282;18.344;2022-12-07T09:21:36;-0.50;99.90
14283;DHT22;7225;59.282;18.344;2022-12-07T09:24:04;-0.40;99.90
14283;DHT22;7225;59.282;18.344;2022-12-07T09:26:33;-0.40;99.90
14283;DHT22;7225;59.282;18.344;2022-12-07T09:29:03;-0.40;99.90
14283;DHT22;7225;59.282;18.344;2022-12-07T09:31:31;-0.40;99.90
14283;DHT22;7225;59.282;18.344;2022-12-07T09:34:00;-0.30;99.90
14283;DHT22;7225;59.282;18.344;2022-12-07T09:36:30;-0.30;99.90
14283;DHT22;7225;59.282;18.344;2022-12-07T09:38:58;-0.30;99.90
14283;DHT22;7225;59.282;18.344;2022-12-07T09:41:29;-0.30;99.90
14283;DHT22;7225;59.282;18.344;2022-12-07T09:44:06;-0.30;99.90
14283;DHT22;7225;59.282;18.344;2022-12-07T09:46:36;-0.20;99.90
14283;DHT22;7225;59.282;18.344;2022-12-07T09:49:12;-0.20;99.90
14283;DHT22;7225;59.282;18.344;2022-12-07T09:51:41;-0.20;99.90
14283;DHT22;7225;59.282;18.344;2022-12-07T09:54:13;-0.20;99.90
14283;DHT22;7225;59.282;18.344;2022-12-07T09:56:43;-0.20;99.90
14283;DHT22;7225;59.282;18.344;2022-12-07T09:59:18;-0.20;99.90
14283;DHT22;7225;59.282;18.344;2022-12-07T10:01:49;-0.20;99.90
14283;DHT22;7225;59.282;18.344;2022-12-07T10:04:25;-0.10;99.90
14283;DHT22;7225;59.282;18.344;2022-12-07T10:06:57;-0.10;99.90
14283;DHT22;7225;59.282;18.344;2022-12-07T10:09:25;0.00;99.90
14283;DHT22;7225;59.282;18.344;2022-12-07T10:12:08;0.00;99.90
14283;DHT22;7225;59.282;18.344;2022-12-07T10:14:38;0.00;99.90
14283;DHT22;7225;59.282;18.344;2022-12-07T10:20:28;0.00;99.90
14283;DHT22;7225;59.282;18.344;2022-12-07T10:25:33;0.00;99.90
14283;DHT22;7225;59.282;18.344;2022-12-07T10:31:00;0.00;99.90
14283;DHT22;7225;59.282;18.344;2022-12-07T10:33:48;0.00;99.90
14283;DHT22;7225;59.282;18.344;2022-12-07T10:36:20;0.10;99.90
14283;DHT22;7225;59.282;18.344;2022-12-07T10:39:01;0.10;99.90
14283;DHT22;7225;59.282;18.344;2022-12-07T10:41:30;0.10;99.90
14283;DHT22;7225;59.282;18.344;2022-12-07T10:43:58;0.10;99.90
14283;DHT22;7225;59.282;18.344;2022-12-07T11:03:30;0.10;99.90
14283;DHT22;7225;59.282;18.344;2022-12-07T11:06:16;0.10;99.90
14283;DHT22;7225;59.282;18.344;2022-12-07T11:17:57;0.10;99.90
14283;DHT22;7225;59.282;18.344;2022-12-07T11:20:55;0.10;99.90
14283;DHT22;7225;59.282;18.344;2022-12-07T11:32:04;0.10;99.90
14283;DHT22;7225;59.282;18.344;2022-12-07T11:37:38;0.20;99.90
14283;DHT22;7225;59.282;18.344;2022-12-07T11:40:25;0.20;99.90
14283;DHT22;7225;59.282;18.344;2022-12-07T11:45:37;0.20;99.90
14283;DHT22;7225;59.282;18.344;2022-12-07T11:48:22;0.20;99.90
14283;DHT22;7225;59.282;18.344;2022-12-07T11:50:56;0.20;99.90
14283;DHT22;7225;59.282;18.344;2022-12-07T11:53:39;0.20;99.90
14283;DHT22;7225;59.282;18.344;2022-12-07T11:56:15;0.20;99.90
14283;DHT22;7225;59.282;18.344;2022-12-07T12:06:44;0.20;99.90
14283;DHT22;7225;59.282;18.344;2022-12-07T12:09:15;0.20;99.90
14283;DHT22;7225;59.282;18.344;2022-12-07T12:12:25;0.20;99.90
14283;DHT22;7225;59.282;18.344;2022-12-07T12:18:27;0.30;99.90
14283;DHT22;7225;59.282;18.344;2022-12-07T12:21:17;0.30;99.90
14283;DHT22;7225;59.282;18.344;2022-12-07T12:23:57;0.30;99.90
14283;DHT22;7225;59.282;18.344;2022-12-07T12:26:28;0.40;99.90
14283;DHT22;7225;59.282;18.344;2022-12-07T12:29:06;0.30;99.90
14283;DHT22;7225;59.282;18.344;2022-12-07T12:31:40;0.40;99.90
14283;DHT22;7225;59.282;18.344;2022-12-07T12:34:30;0.40;99.90
14283;DHT22;7225;59.282;18.344;2022-12-07T12:36:58;0.40;99.90
14283;DHT22;7225;59.282;18.344;2022-12-07T12:39:26;0.40;99.90
14283;DHT22;7225;59.282;18.344;2022-12-07T12:41:55;0.40;99.90
14283;DHT22;7225;59.282;18.344;2022-12-07T12:55:18;0.40;99.90
14283;DHT22;7225;59.282;18.344;2022-12-07T12:58:29;0.50;99.90
14283;DHT22;7225;59.282;18.344;2022-12-07T13:01:37;0.50;99.90
14283;DHT22;7225;59.282;18.344;2022-12-07T13:04:28;0.50;99.90
14283;DHT22;7225;59.282;18.344;2022-12-07T13:06:59;0.40;99.90
14283;DHT22;7225;59.282;18.344;2022-12-07T13:09:31;0.40;99.90
14283;DHT22;7225;59.282;18.344;2022-12-07T13:12:04;0.50;99.90
14283;DHT22;7225;59.282;18.344;2022-12-07T13:14:42;0.40;99.90
14283;DHT22;7225;59.282;18.344;2022-12-07T13:17:53;0.40;99.90
14283;DHT22;7225;59.282;18.344;2022-12-07T13:20:05;0.40;99.90
14283;DHT22;7225;59.282;18.344;2022-12-07T13:22:48;0.40;99.90
14283;DHT22;7225;59.282;18.344;2022-12-07T13:25:37;0.40;99.90
14283;DHT22;7225;59.282;18.344;2022-12-07T13:28:14;0.40;99.90
14283;DHT22;7225;59.282;18.344;2022-12-07T13:33:19;0.40;99.90
14283;DHT22;7225;59.282;18.344;2022-12-07T13:35:47;0.40;99.90
14283;DHT22;7225;59.282;18.344;2022-12-07T13:38:28;0.40;99.90
14283;DHT22;7225;59.282;18.344;2022-12-07T13:41:11;0.40;99.90
14283;DHT22;7225;59.282;18.344;2022-12-07T13:44:13;0.30;99.90
14283;DHT22;7225;59.282;18.344;2022-12-07T13:46:56;0.30;99.90
14283;DHT22;7225;59.282;18.344;2022-12-07T13:49:27;0.30;99.90
14283;DHT22;7225;59.282;18.344;2022-12-07T13:52:13;0.30;99.90
14283;DHT22;7225;59.282;18.344;2022-12-07T13:54:48;0.30;99.90
14283;DHT22;7225;59.282;18.344;2022-12-07T13:57:17;0.30;99.90
14283;DHT22;7225;59.282;18.344;2022-12-07T13:59:44;0.20;99.90
14283;DHT22;7225;59.282;18.344;2022-12-07T14:02:26;0.30;99.90
14283;DHT22;7225;59.282;18.344;2022-12-07T14:05:16;0.30;99.90
14283;DHT22;7225;59.282;18.344;2022-12-07T14:13:01;0.20;99.90
14283;DHT22;7225;59.282;18.344;2022-12-07T14:15:34;0.20;99.90
14283;DHT22;7225;59.282;18.344;2022-12-07T14:18:03;0.20;99.90
14283;DHT22;7225;59.282;18.344;2022-12-07T14:20:38;0.20;99.90
14283;DHT22;7225;59.282;18.344;2022-12-07T14:23:24;0.20;99.90
14283;DHT22;7225;59.282;18.344;2022-12-07T14:25:53;0.20;99.90
14283;DHT22;7225;59.282;18.344;2022-12-07T14:28:31;0.30;99.90
14283;DHT22;7225;59.282;18.344;2022-12-07T14:31:00;0.30;99.90
14283;DHT22;7225;59.282;18.344;2022-12-07T14:33:29;0.30;99.90
14283;DHT22;7225;59.282;18.344;2022-12-07T14:35:57;0.30;99.90
14283;DHT22;7225;59.282;18.344;2022-12-07T14:38:25;0.30;99.90
14283;DHT22;7225;59.282;18.344;2022-12-07T14:40:54;0.30;99.90
14283;DHT22;7225;59.282;18.344;2022-12-07T14:43:41;0.30;99.90
14283;DHT22;7225;59.282;18.344;2022-12-07T14:46:29;0.30;99.90
14283;DHT22;7225;59.282;18.344;2022-12-07T14:48:56;0.20;99.90
14283;DHT22;7225;59.282;18.344;2022-12-07T14:51:46;0.20;99.90
14283;DHT22;7225;59.282;18.344;2022-12-07T14:54:35;0.20;99.90
14283;DHT22;7225;59.282;18.344;2022-12-07T14:57:03;0.20;99.90
14283;DHT22;7225;59.282;18.344;2022-12-07T14:59:30;0.20;99.90
14283;DHT22;7225;59.282;18.344;2022-12-07T15:01:57;0.20;99.90
14283;DHT22;7225;59.282;18.344;2022-12-07T15:04:24;0.10;99.90
14283;DHT22;7225;59.282;18.344;2022-12-07T15:07:00;0.10;99.90
14283;DHT22;7225;59.282;18.344;2022-12-07T15:09:27;0.10;99.90
14283;DHT22;7225;59.282;18.344;2022-12-07T15:11:54;0.10;99.90
14283;DHT22;7225;59.282;18.344;2022-12-07T15:14:21;0.10;99.90
14283;DHT22;7225;59.282;18.344;2022-12-07T15:16:48;0.00;99.90
14283;DHT22;7225;59.282;18.344;2022-12-07T15:19:36;0.00;99.90
14283;DHT22;7225;59.282;18.344;2022-12-07T15:22:04;-0.10;99.90
14283;DHT22;7225;59.282;18.344;2022-12-07T15:24:33;0.00;99.90
14283;DHT22;7225;59.282;18.344;2022-12-07T15:27:02;-0.10;99.90
14283;DHT22;7225;59.282;18.344;2022-12-07T15:29:30;-0.10;99.90
14283;DHT22;7225;59.282;18.344;2022-12-07T15:31:56;-0.10;99.90
14283;DHT22;7225;59.282;18.344;2022-12-07T15:34:26;-0.10;99.90
14283;DHT22;7225;59.282;18.344;2022-12-07T15:37:04;-0.10;99.90
14283;DHT22;7225;59.282;18.344;2022-12-07T15:39:32;-0.10;99.90
14283;DHT22;7225;59.282;18.344;2022-12-07T15:42:00;-0.10;99.90
14283;DHT22;7225;59.282;18.344;2022-12-07T15:44:28;-0.10;99.90
14283;DHT22;7225;59.282;18.344;2022-12-07T15:47:14;-0.20;99.90
14283;DHT22;7225;59.282;18.344;2022-12-07T15:49:43;-0.20;99.90
14283;DHT22;7225;59.282;18.344;2022-12-07T15:52:11;-0.20;99.90
14283;DHT22;7225;59.282;18.344;2022-12-07T15:54:40;-0.30;99.90
14283;DHT22;7225;59.282;18.344;2022-12-07T15:57:08;-0.30;99.90
14283;DHT22;7225;59.282;18.344;2022-12-07T15:59:36;-0.20;99.90
14283;DHT22;7225;59.282;18.344;2022-12-07T16:02:05;-0.30;99.90
14283;DHT22;7225;59.282;18.344;2022-12-07T16:04:33;-0.30;99.90
14283;DHT22;7225;59.282;18.344;2022-12-07T16:07:03;-0.30;99.90
14283;DHT22;7225;59.282;18.344;2022-12-07T16:09:30;-0.30;99.90
14283;DHT22;7225;59.282;18.344;2022-12-07T16:11:59;-0.30;99.90
14283;DHT22;7225;59.282;18.344;2022-12-07T16:14:26;-0.40;99.90
14283;DHT22;7225;59.282;18.344;2022-12-07T16:16:55;-0.40;99.90
14283;DHT22;7225;59.282;18.344;2022-12-07T16:19:22;-0.40;99.90
14283;DHT22;7225;59.282;18.344;2022-12-07T16:21:49;-0.40;99.90
14283;DHT22;7225;59.282;18.344;2022-12-07T16:24:17;-0.40;99.90
14283;DHT22;7225;59.282;18.344;2022-12-07T16:26:45;-0.40;99.90
14283;DHT22;7225;59.282;18.344;2022-12-07T16:29:19;-0.40;99.90
14283;DHT22;7225;59.282;18.344;2022-12-07T16:31:48;-0.40;99.90
14283;DHT22;7225;59.282;18.344;2022-12-07T16:34:16;-0.40;99.90
14283;DHT22;7225;59.282;18.344;2022-12-07T16:36:45;-0.40;99.90
14283;DHT22;7225;59.282;18.344;2022-12-07T16:39:32;-0.40;99.90
14283;DHT22;7225;59.282;18.344;2022-12-07T16:42:00;-0.40;99.90
14283;DHT22;7225;59.282;18.344;2022-12-07T16:44:27;-0.40;99.90
14283;DHT22;7225;59.282;18.344;2022-12-07T16:46:55;-0.40;99.90
14283;DHT22;7225;59.282;18.344;2022-12-07T16:49:23;-0.40;99.90
14283;DHT22;7225;59.282;18.344;2022-12-07T16:51:51;-0.40;99.90
14283;DHT22;7225;59.282;18.344;2022-12-07T16:54:38;-0.40;99.90
14283;DHT22;7225;59.282;18.344;2022-12-07T16:57:06;-0.40;99.90
14283;DHT22;7225;59.282;18.344;2022-12-07T16:59:33;-0.40;99.90
14283;DHT22;7225;59.282;18.344;2022-12-07T17:02:00;-0.40;99.90
14283;DHT22;7225;59.282;18.344;2022-12-07T17:04:29;-0.40;99.90
14283;DHT22;7225;59.282;18.344;2022-12-07T17:06:56;-0.40;99.90
14283;DHT22;7225;59.282;18.344;2022-12-07T17:09:25;-0.40;99.90
14283;DHT22;7225;59.282;18.344;2022-12-07T17:11:53;-0.40;99.90
14283;DHT22;7225;59.282;18.344;2022-12-07T17:14:20;-0.50;99.90
14283;DHT22;7225;59.282;18.344;2022-12-07T17:17:07;-0.40;99.90
14283;DHT22;7225;59.282;18.344;2022-12-07T17:19:36;-0.40;99.90
14283;DHT22;7225;59.282;18.344;2022-12-07T17:22:03;-0.50;99.90
14283;DHT22;7225;59.282;18.344;2022-12-07T17:24:32;-0.50;99.90
14283;DHT22;7225;59.282;18.344;2022-12-07T17:26:59;-0.40;99.90
14283;DHT22;7225;59.282;18.344;2022-12-07T17:29:29;-0.50;99.90
14283;DHT22;7225;59.282;18.344;2022-12-07T17:31:57;-0.50;99.90
14283;DHT22;7225;59.282;18.344;2022-12-07T17:34:24;-0.50;99.90
14283;DHT22;7225;59.282;18.344;2022-12-07T17:36:52;-0.60;99.90
14283;DHT22;7225;59.282;18.344;2022-12-07T17:39:23;-0.50;99.90
14283;DHT22;7225;59.282;18.344;2022-12-07T17:41:52;-0.50;99.90
14283;DHT22;7225;59.282;18.344;2022-12-07T17:44:40;-0.60;99.90
14283;DHT22;7225;59.282;18.344;2022-12-07T17:47:10;-0.60;99.90
14283;DHT22;7225;59.282;18.344;2022-12-07T17:49:37;-0.60;99.90
14283;DHT22;7225;59.282;18.344;2022-12-07T17:52:05;-0.60;99.90
14283;DHT22;7225;59.282;18.344;2022-12-07T17:54:50;-0.60;99.90